Time;durP1;ratioP1;P1;durP2;ratioP2;P2;SDS_P1;SDS_P2;PMS_P1;PMS_P2;Temp;Humidity;BMP_temperature;BMP_pressure;BME280_temperature;BME280_humidity;BME280_pressure;Samples;Min_cycle;Max_cycle;Signal;HPM_P1;HPM_P2
2021/11/29 00:01:41;;;;;;;2.30;2.10;;;17.20;60.10;;;;;;5033634;28;20052;-34
2021/11/29 00:04:07;;;;;;;2.55;2.35;;;17.20;60.50;;;;;;5031056;28;20593;-29
2021/11/29 00:06:33;;;;;;;2.70;2.50;;;17.20;62.00;;;;;;5031838;28;20044;-28
2021/11/29 00:08:58;;;;;;;2.85;2.50;;;17.20;63.80;;;;;;5048498;28;20052;-32
2021/11/29 00:11:24;;;;;;;6.35;2.60;;;17.20;64.40;;;;;;5051759;28;20119;-27
2021/11/29 00:13:49;;;;;;;2.47;2.28;;;17.20;64.30;;;;;;5051836;28;20055;-25
2021/11/29 00:16:15;;;;;;;3.80;2.50;;;17.20;64.20;;;;;;5051073;28;20603;-27
2021/11/29 00:18:41;;;;;;;6.07;2.50;;;17.20;64.20;;;;;;5056089;28;20064;-29
2021/11/29 00:21:07;;;;;;;3.90;2.60;;;17.20;63.80;;;;;;5054821;28;20040;-30
2021/11/29 00:23:32;;;;;;;3.35;2.00;;;17.20;63.50;;;;;;5055896;28;20045;-25
2021/11/29 00:25:58;;;;;;;2.50;2.20;;;17.20;62.90;;;;;;5055551;28;20095;-27
2021/11/29 00:28:24;;;;;;;2.58;2.10;;;17.20;62.80;;;;;;5055932;28;20098;-24
2021/11/29 00:30:49;;;;;;;2.47;1.95;;;17.20;62.50;;;;;;5056155;28;20047;-30
2021/11/29 00:33:15;;;;;;;2.22;2.00;;;17.20;62.30;;;;;;5054868;28;20048;-27
2021/11/29 00:35:41;;;;;;;2.38;2.17;;;17.20;62.10;;;;;;5055720;28;20041;-32
2021/11/29 00:38:07;;;;;;;2.25;2.10;;;17.20;62.00;;;;;;5055128;28;20095;-28
2021/11/29 00:40:33;;;;;;;2.30;2.20;;;17.20;61.80;;;;;;5054742;28;20037;-25
2021/11/29 00:42:58;;;;;;;3.25;2.22;;;17.20;61.80;;;;;;5054848;28;20045;-30
2021/11/29 00:45:24;;;;;;;1.80;1.70;;;17.20;61.70;;;;;;5055982;28;20037;-31
2021/11/29 00:47:50;;;;;;;2.30;2.13;;;17.20;61.60;;;;;;5055095;28;20049;-29
2021/11/29 00:50:16;;;;;;;1.90;1.80;;;17.20;61.40;;;;;;5054415;28;20064;-31
2021/11/29 00:52:41;;;;;;;2.05;1.92;;;17.20;61.30;;;;;;5061682;28;20051;-27
2021/11/29 00:55:08;;;;;;;2.20;2.10;;;17.20;61.30;;;;;;5048006;28;20041;-28
2021/11/29 00:57:33;;;;;;;2.67;2.10;;;17.20;61.30;;;;;;5035840;28;20056;-24
2021/11/29 00:59:59;;;;;;;2.17;1.98;;;17.20;61.20;;;;;;5033189;28;20128;-30
2021/11/29 01:02:25;;;;;;;2.38;2.20;;;17.20;61.20;;;;;;5035742;28;20068;-23
2021/11/29 01:04:50;;;;;;;1.98;1.88;;;17.20;61.20;;;;;;5035379;28;20048;-27
2021/11/29 01:07:16;;;;;;;2.08;1.98;;;17.20;61.10;;;;;;5034939;28;20406;-27
2021/11/29 01:09:42;;;;;;;2.13;1.92;;;17.20;61.00;;;;;;5035829;28;20045;-25
2021/11/29 01:12:08;;;;;;;1.63;1.52;;;17.20;61.00;;;;;;5034621;28;20048;-27
2021/11/29 01:14:34;;;;;;;1.90;1.80;;;17.20;61.00;;;;;;5035378;28;20049;-31
2021/11/29 01:16:59;;;;;;;2.03;1.92;;;17.20;61.00;;;;;;5035102;28;20068;-28
2021/11/29 01:19:25;;;;;;;1.80;1.63;;;17.20;60.90;;;;;;5032864;28;20053;-29
2021/11/29 01:21:51;;;;;;;2.47;2.33;;;17.20;60.80;;;;;;5025895;28;20077;-26
2021/11/29 01:24:16;;;;;;;1.75;1.65;;;17.20;60.90;;;;;;5027794;28;20180;-29
2021/11/29 01:26:42;;;;;;;2.58;1.73;;;17.20;60.90;;;;;;5035498;28;20469;-31
2021/11/29 01:29:07;;;;;;;1.67;1.58;;;17.20;60.90;;;;;;5034901;28;20048;-26
2021/11/29 01:31:33;;;;;;;2.45;1.70;;;17.10;60.80;;;;;;5035489;28;20049;-31
2021/11/29 01:33:59;;;;;;;4.25;1.70;;;17.20;60.80;;;;;;5034634;28;20426;-29
2021/11/29 01:36:24;;;;;;;2.90;1.67;;;17.20;60.90;;;;;;5034889;28;20088;-28
2021/11/29 01:38:50;;;;;;;3.05;1.85;;;17.10;60.70;;;;;;5035347;28;20128;-31
2021/11/29 01:41:16;;;;;;;1.58;1.48;;;17.10;60.70;;;;;;5034506;28;20120;-29
2021/11/29 01:43:43;;;;;;;1.70;1.60;;;17.10;60.70;;;;;;5035263;28;20038;-33
2021/11/29 01:46:09;;;;;;;1.58;1.48;;;17.10;60.70;;;;;;5034702;28;20037;-32
2021/11/29 01:48:34;;;;;;;1.83;1.70;;;17.10;60.70;;;;;;5035020;28;20057;-32
2021/11/29 01:51:00;;;;;;;3.53;1.50;;;17.10;60.70;;;;;;5034485;28;20052;-29
2021/11/29 01:53:27;;;;;;;1.38;1.27;;;17.10;60.70;;;;;;5046060;28;20029;-35
2021/11/29 01:55:53;;;;;;;2.08;1.98;;;17.10;60.90;;;;;;5039705;28;20045;-29
2021/11/29 01:58:19;;;;;;;1.60;1.50;;;17.10;60.80;;;;;;5034499;28;20576;-29
2021/11/29 02:00:50;;;;;;;1.88;1.52;;;17.10;60.70;;;;;;5034753;28;20092;-31
2021/11/29 02:03:16;;;;;;;1.70;1.60;;;17.10;60.80;;;;;;5033821;28;20099;-34
2021/11/29 02:05:42;;;;;;;1.63;1.52;;;17.10;60.70;;;;;;5035015;28;20124;-30
2021/11/29 02:08:08;;;;;;;1.92;1.65;;;17.20;60.60;;;;;;5034257;28;20053;-31
2021/11/29 02:10:33;;;;;;;1.63;1.52;;;17.10;60.70;;;;;;5034983;28;20041;-27
2021/11/29 02:12:59;;;;;;;1.50;1.40;;;17.10;60.80;;;;;;5034183;28;20042;-25
2021/11/29 02:15:25;;;;;;;1.60;1.42;;;17.10;60.70;;;;;;5033732;28;20053;-33
2021/11/29 02:17:50;;;;;;;1.40;1.30;;;17.10;60.70;;;;;;5034377;28;20050;-30
2021/11/29 02:20:16;;;;;;;1.60;1.50;;;17.10;60.70;;;;;;5034156;28;20091;-31
2021/11/29 02:22:44;;;;;;;1.55;1.45;;;17.10;60.70;;;;;;5034807;28;20037;-31
2021/11/29 02:25:10;;;;;;;1.65;1.55;;;17.10;60.60;;;;;;5036494;28;20049;-29
2021/11/29 02:27:36;;;;;;;1.60;1.50;;;17.10;60.60;;;;;;5038769;28;20041;-33
2021/11/29 02:30:02;;;;;;;1.42;1.33;;;17.10;60.60;;;;;;5037894;28;20133;-27
2021/11/29 02:32:28;;;;;;;1.40;1.20;;;17.10;60.60;;;;;;5037927;28;20513;-28
2021/11/29 02:34:53;;;;;;;1.40;1.30;;;17.10;60.60;;;;;;5038347;28;20050;-28
2021/11/29 02:37:19;;;;;;;1.15;1.15;;;17.10;60.60;;;;;;5037924;28;20048;-26
2021/11/29 02:39:45;;;;;;;1.30;1.20;;;17.10;60.60;;;;;;5038536;28;20068;-28
2021/11/29 02:42:12;;;;;;;1.25;1.15;;;17.10;60.60;;;;;;5037862;28;20041;-26
2021/11/29 02:44:39;;;;;;;1.10;1.10;;;17.10;60.60;;;;;;5038450;28;20051;-26
2021/11/29 02:47:05;;;;;;;1.25;1.15;;;17.10;60.60;;;;;;5035867;28;20646;-23
2021/11/29 02:49:31;;;;;;;1.35;1.25;;;17.10;60.50;;;;;;5038047;28;20053;-31
2021/11/29 02:51:58;;;;;;;1.33;1.23;;;17.10;60.50;;;;;;5038011;28;20510;-24
2021/11/29 02:54:26;;;;;;;1.10;1.10;;;17.10;60.50;;;;;;5037366;28;20050;-28
2021/11/29 02:56:54;;;;;;;1.23;1.23;;;17.10;60.40;;;;;;5038312;28;20414;-28
2021/11/29 02:59:25;;;;;;;1.30;1.20;;;17.10;60.50;;;;;;5040170;28;20064;-27
2021/11/29 03:01:52;;;;;;;1.10;1.10;;;17.00;60.50;;;;;;5049847;28;20437;-27
2021/11/29 03:04:19;;;;;;;1.00;1.00;;;17.10;60.40;;;;;;5040341;28;20053;-30
2021/11/29 03:06:45;;;;;;;1.20;1.10;;;17.10;60.50;;;;;;5042872;28;20524;-31
2021/11/29 03:09:10;;;;;;;1.40;1.30;;;17.10;60.50;;;;;;5037133;28;20049;-31
2021/11/29 03:11:36;;;;;;;1.13;1.08;;;17.10;60.40;;;;;;5037635;28;20132;-23
2021/11/29 03:14:02;;;;;;;1.10;1.00;;;17.10;60.50;;;;;;5036499;28;20115;-27
2021/11/29 03:16:27;;;;;;;0.85;0.85;;;17.10;60.50;;;;;;5037856;28;20037;-26
2021/11/29 03:18:53;;;;;;;1.27;1.13;;;17.10;60.50;;;;;;5036267;28;20050;-27
2021/11/29 03:21:20;;;;;;;0.90;0.90;;;17.10;60.40;;;;;;5036413;28;20064;-28
2021/11/29 03:23:47;;;;;;;0.90;0.90;;;17.10;60.40;;;;;;5036471;28;20459;-29
2021/11/29 03:26:17;;;;;;;0.90;0.90;;;17.10;60.30;;;;;;5036379;28;20037;-30
2021/11/29 03:28:43;;;;;;;1.00;1.00;;;17.10;60.30;;;;;;5036023;28;20048;-28
2021/11/29 03:31:09;;;;;;;0.82;0.82;;;17.10;60.30;;;;;;5030122;28;20049;-26
2021/11/29 03:33:35;;;;;;;0.85;0.85;;;17.10;60.30;;;;;;5037349;28;20041;-27
2021/11/29 03:36:01;;;;;;;1.00;1.00;;;17.10;60.30;;;;;;5037144;28;20042;-26
2021/11/29 03:38:27;;;;;;;1.13;1.10;;;17.00;60.20;;;;;;5036606;28;20238;-27
2021/11/29 03:40:53;;;;;;;0.70;0.70;;;17.00;60.20;;;;;;5037456;28;20105;-30
2021/11/29 03:43:19;;;;;;;0.90;0.90;;;17.00;60.30;;;;;;5036696;28;20054;-28
2021/11/29 03:45:44;;;;;;;1.15;1.05;;;17.10;60.30;;;;;;5036917;28;20053;-27
2021/11/29 03:48:10;;;;;;;0.90;0.90;;;17.00;60.20;;;;;;5036271;28;20090;-32
2021/11/29 03:50:35;;;;;;;0.82;0.82;;;17.00;60.30;;;;;;5037022;28;20402;-29
2021/11/29 03:53:01;;;;;;;0.93;0.93;;;17.00;60.20;;;;;;5045262;28;20041;-27
2021/11/29 03:55:27;;;;;;;1.00;1.00;;;17.00;60.10;;;;;;5045303;28;20072;-27
2021/11/29 03:57:52;;;;;;;0.77;0.77;;;17.00;60.20;;;;;;5036317;28;20073;-31
2021/11/29 04:00:18;;;;;;;1.00;0.90;;;17.00;60.10;;;;;;5035932;28;20041;-27
2021/11/29 04:02:44;;;;;;;0.80;0.80;;;17.00;60.20;;;;;;5036569;28;20041;-33
2021/11/29 04:05:09;;;;;;;0.90;0.90;;;17.00;60.20;;;;;;5036074;28;20049;-28
2021/11/29 04:07:35;;;;;;;1.10;1.10;;;17.00;60.20;;;;;;5023405;28;20046;-27
2021/11/29 04:10:01;;;;;;;0.90;0.90;;;17.00;60.20;;;;;;5025107;28;20585;-29
2021/11/29 04:12:26;;;;;;;0.75;0.75;;;17.00;60.10;;;;;;5035826;28;20140;-29
2021/11/29 04:14:52;;;;;;;0.90;0.90;;;17.00;60.00;;;;;;5036363;28;20048;-31
2021/11/29 04:17:18;;;;;;;0.88;0.88;;;17.00;60.20;;;;;;5035835;28;20045;-32
2021/11/29 04:19:45;;;;;;;0.68;0.68;;;17.00;60.20;;;;;;5035988;28;20064;-31
2021/11/29 04:22:13;;;;;;;0.60;0.60;;;17.00;60.10;;;;;;5035808;28;20518;-32
2021/11/29 04:24:40;;;;;;;1.08;1.08;;;17.00;60.10;;;;;;5051371;28;20410;-25
2021/11/29 04:27:06;;;;;;;0.80;0.80;;;17.00;60.10;;;;;;5036008;28;20059;-30
2021/11/29 04:29:34;;;;;;;1.00;1.00;;;17.00;60.10;;;;;;5035687;28;20605;-31
2021/11/29 04:32:00;;;;;;;0.70;0.70;;;17.00;60.20;;;;;;5036256;28;20048;-31
2021/11/29 04:34:26;;;;;;;0.85;0.85;;;17.00;60.10;;;;;;5035485;28;20037;-27
2021/11/29 04:36:51;;;;;;;1.15;1.15;;;17.00;60.10;;;;;;5036359;28;20180;-34
2021/11/29 04:39:17;;;;;;;0.65;0.65;;;17.00;60.10;;;;;;5035781;28;20048;-32
2021/11/29 04:41:43;;;;;;;0.85;0.85;;;17.00;60.10;;;;;;5035861;28;20045;-30
2021/11/29 04:44:09;;;;;;;0.85;0.85;;;17.00;60.10;;;;;;5035519;28;20124;-30
2021/11/29 04:46:35;;;;;;;0.88;0.88;;;16.90;60.00;;;;;;5035276;28;20076;-30
2021/11/29 04:49:00;;;;;;;0.93;0.85;;;17.00;60.00;;;;;;5035535;28;20502;-28
2021/11/29 04:51:26;;;;;;;0.77;0.77;;;17.00;60.00;;;;;;5035373;28;20034;-32
2021/11/29 04:53:51;;;;;;;0.90;0.90;;;17.00;60.10;;;;;;5020311;28;20042;-23
2021/11/29 04:56:17;;;;;;;1.17;1.17;;;17.00;60.00;;;;;;5032472;28;20033;-30
2021/11/29 04:58:43;;;;;;;0.90;0.90;;;17.00;59.90;;;;;;5035351;28;20069;-28
2021/11/29 05:01:09;;;;;;;0.73;0.73;;;17.00;59.90;;;;;;5035784;28;20040;-25
2021/11/29 05:03:34;;;;;;;0.77;0.77;;;17.00;60.00;;;;;;5035181;28;20045;-26
2021/11/29 05:06:00;;;;;;;0.93;0.93;;;16.90;59.90;;;;;;5035672;28;20039;-25
2021/11/29 05:08:25;;;;;;;0.70;0.70;;;17.00;60.00;;;;;;5035122;28;20048;-28
2021/11/29 05:10:51;;;;;;;0.80;0.80;;;17.00;60.00;;;;;;5035724;28;20068;-24
2021/11/29 05:13:18;;;;;;;0.80;0.80;;;17.00;59.90;;;;;;5034469;28;20049;-30
2021/11/29 05:15:44;;;;;;;1.08;1.08;;;17.00;59.90;;;;;;5035659;28;20041;-24
2021/11/29 05:18:09;;;;;;;1.05;1.05;;;16.90;59.90;;;;;;5034772;28;20060;-27
2021/11/29 05:20:35;;;;;;;1.63;1.10;;;16.90;59.90;;;;;;5035027;28;20097;-32
2021/11/29 05:23:01;;;;;;;1.05;1.05;;;16.90;59.90;;;;;;5035553;28;20476;-32
2021/11/29 05:25:27;;;;;;;1.08;1.08;;;16.90;59.90;;;;;;5034752;28;20048;-28
2021/11/29 05:27:52;;;;;;;1.27;1.17;;;16.90;60.00;;;;;;5035220;28;20098;-25
2021/11/29 05:30:18;;;;;;;1.35;1.25;;;16.90;60.00;;;;;;5032450;28;20135;-28
2021/11/29 05:32:43;;;;;;;1.23;1.10;;;16.90;60.00;;;;;;5033315;28;20053;-28
2021/11/29 05:35:09;;;;;;;1.65;1.50;;;16.90;60.00;;;;;;5034421;28;20045;-30
2021/11/29 05:37:35;;;;;;;1.45;1.20;;;16.90;60.00;;;;;;5033805;28;20042;-30
2021/11/29 05:40:00;;;;;;;1.40;1.30;;;16.90;60.20;;;;;;5033939;28;20129;-25
2021/11/29 05:42:26;;;;;;;1.00;1.00;;;17.00;60.50;;;;;;5031866;28;20045;-31
2021/11/29 05:44:52;;;;;;;1.00;0.98;;;17.00;62.00;;;;;;5034061;28;20107;-26
2021/11/29 05:47:18;;;;;;;1.20;1.10;;;17.00;62.00;;;;;;5033389;28;20362;-30
2021/11/29 05:49:44;;;;;;;1.30;1.20;;;16.90;62.00;;;;;;5034220;28;20401;-23
2021/11/29 05:52:09;;;;;;;1.30;1.20;;;17.00;62.50;;;;;;5050794;28;20153;-28
2021/11/29 05:54:35;;;;;;;1.02;1.00;;;17.00;63.10;;;;;;5033915;28;20056;-24
2021/11/29 05:57:00;;;;;;;1.10;1.10;;;17.00;63.20;;;;;;5033529;28;20052;-23
2021/11/29 05:59:26;;;;;;;0.80;0.80;;;17.00;63.80;;;;;;5034014;28;20052;-25
2021/11/29 06:01:52;;;;;;;1.30;1.20;;;17.00;64.30;;;;;;5037389;28;20053;-27
2021/11/29 06:04:17;;;;;;;1.17;1.08;;;17.00;64.50;;;;;;5036937;28;20095;-29
2021/11/29 06:06:43;;;;;;;1.13;1.13;;;17.00;64.80;;;;;;5032474;28;20049;-26
2021/11/29 06:09:09;;;;;;;1.30;1.20;;;17.00;64.90;;;;;;5040748;28;20040;-29
2021/11/29 06:11:35;;;;;;;2.05;0.98;;;17.10;65.60;;;;;;5056401;28;20400;-25
2021/11/29 06:14:00;;;;;;;0.90;0.90;;;17.10;65.70;;;;;;5042353;28;20456;-27
2021/11/29 06:16:26;;;;;;;1.10;1.10;;;17.10;66.10;;;;;;5037050;28;20037;-30
2021/11/29 06:18:52;;;;;;;0.85;0.85;;;17.10;66.60;;;;;;5031037;28;20049;-33
2021/11/29 06:21:17;;;;;;;1.27;1.15;;;17.10;67.10;;;;;;5028524;28;20106;-26
2021/11/29 06:23:43;;;;;;;0.93;0.93;;;17.10;67.70;;;;;;5036927;28;20604;-28
2021/11/29 06:26:08;;;;;;;1.08;1.00;;;17.10;68.60;;;;;;5037636;28;20045;-33
2021/11/29 06:28:34;;;;;;;1.88;0.98;;;17.10;68.00;;;;;;5036994;28;20040;-30
2021/11/29 06:31:00;;;;;;;1.17;0.82;;;17.10;69.10;;;;;;5038468;28;20477;-29
2021/11/29 06:33:25;;;;;;;1.25;0.80;;;17.10;69.20;;;;;;5037021;28;20128;-26
2021/11/29 06:35:51;;;;;;;1.08;0.95;;;17.10;69.50;;;;;;5038565;28;20049;-33
2021/11/29 06:38:17;;;;;;;0.52;0.52;;;17.10;69.70;;;;;;5037598;28;20037;-25
2021/11/29 06:40:49;;;;;;;0.70;0.63;;;17.10;69.60;;;;;;5037369;28;20049;-31
2021/11/29 06:43:15;;;;;;;0.70;0.70;;;17.10;69.40;;;;;;5038312;28;20061;-30
2021/11/29 06:45:40;;;;;;;0.70;0.65;;;17.10;68.90;;;;;;5037754;28;20383;-27
2021/11/29 06:48:06;;;;;;;0.70;0.70;;;17.10;68.90;;;;;;5037486;28;20171;-25
2021/11/29 06:50:32;;;;;;;1.40;0.70;;;17.10;68.70;;;;;;5028763;28;20045;-25
2021/11/29 06:52:58;;;;;;;0.65;0.65;;;17.10;67.80;;;;;;5034644;28;20037;-26
2021/11/29 06:55:24;;;;;;;1.05;1.00;;;17.10;67.30;;;;;;5038615;28;20053;-28
2021/11/29 06:57:50;;;;;;;1.08;1.08;;;17.10;67.00;;;;;;5039777;28;20065;-30
2021/11/29 07:00:20;;;;;;;1.00;0.82;;;17.10;66.80;;;;;;5036266;28;20100;-31
2021/11/29 07:02:47;;;;;;;1.05;0.80;;;17.10;66.80;;;;;;5033305;28;20049;-26
2021/11/29 07:05:13;;;;;;;0.80;0.80;;;17.10;66.60;;;;;;5033881;28;20045;-29
2021/11/29 07:07:39;;;;;;;0.80;0.80;;;17.10;66.40;;;;;;5040399;28;20041;-30
2021/11/29 07:10:05;;;;;;;3.05;1.02;;;17.10;66.20;;;;;;5047632;28;20131;-30
2021/11/29 07:12:31;;;;;;;1.30;0.80;;;17.10;66.20;;;;;;5075883;28;20064;-31
2021/11/29 07:14:57;;;;;;;2.00;0.80;;;17.10;66.10;;;;;;5059937;28;20075;-32
2021/11/29 07:17:22;;;;;;;1.77;1.10;;;17.20;66.00;;;;;;5061229;28;20068;-23
2021/11/29 07:19:52;;;;;;;2.30;1.20;;;17.10;66.10;;;;;;5050603;28;20109;-26
2021/11/29 07:22:20;;;;;;;2.53;1.30;;;17.20;66.10;;;;;;5035419;28;20041;-23
2021/11/29 07:24:45;;;;;;;1.83;1.35;;;17.20;65.90;;;;;;5034811;28;20529;-30
2021/11/29 07:27:11;;;;;;;1.00;0.90;;;17.20;65.80;;;;;;5045663;28;20091;-29
2021/11/29 07:29:36;;;;;;;1.77;1.10;;;17.20;65.80;;;;;;5045412;28;20052;-26
2021/11/29 07:32:02;;;;;;;1.65;0.98;;;17.20;65.80;;;;;;5043275;28;20041;-28
2021/11/29 07:34:28;;;;;;;3.00;1.20;;;17.20;65.60;;;;;;5038265;28;20115;-30
2021/11/29 07:36:53;;;;;;;1.70;1.38;;;17.20;65.40;;;;;;5038180;28;20052;-27
2021/11/29 07:39:19;;;;;;;1.60;1.08;;;17.20;65.40;;;;;;5028565;28;20120;-27
2021/11/29 07:41:45;;;;;;;2.13;1.00;;;17.20;65.30;;;;;;5017419;28;20050;-30
2021/11/29 07:44:10;;;;;;;0.95;0.90;;;17.10;65.20;;;;;;5022633;28;20050;-26
2021/11/29 07:46:36;;;;;;;1.00;0.90;;;17.10;65.00;;;;;;5042412;28;20044;-26
2021/11/29 07:49:03;;;;;;;1.98;1.00;;;17.20;64.80;;;;;;5042153;28;20050;-25
2021/11/29 07:51:29;;;;;;;1.58;1.20;;;17.20;64.70;;;;;;5036246;28;20041;-25
2021/11/29 07:53:54;;;;;;;1.25;1.08;;;17.20;64.60;;;;;;5049054;28;20025;-25
2021/11/29 07:56:20;;;;;;;1.08;0.98;;;17.20;64.40;;;;;;5035090;28;20042;-28
2021/11/29 07:58:46;;;;;;;1.33;1.17;;;17.20;64.30;;;;;;5035372;28;20048;-30
2021/11/29 08:01:12;;;;;;;0.98;0.77;;;17.20;64.30;;;;;;5031824;28;20074;-31
2021/11/29 08:03:38;;;;;;;1.25;0.90;;;17.20;64.10;;;;;;5016077;28;20121;-23
2021/11/29 08:06:04;;;;;;;1.30;0.93;;;17.20;64.00;;;;;;5017396;28;20074;-32
2021/11/29 08:08:29;;;;;;;1.00;0.90;;;17.20;63.90;;;;;;5043984;28;20076;-25
2021/11/29 08:10:55;;;;;;;1.10;0.88;;;17.20;63.90;;;;;;5036779;28;20125;-26
2021/11/29 08:13:20;;;;;;;1.25;0.90;;;17.20;63.80;;;;;;5036097;28;20033;-32
2021/11/29 08:15:46;;;;;;;0.80;0.77;;;17.10;63.70;;;;;;5065484;28;20047;-23
2021/11/29 08:18:11;;;;;;;0.90;0.90;;;17.10;63.60;;;;;;5054203;28;20036;-32
2021/11/29 08:20:37;;;;;;;0.80;0.77;;;17.20;63.60;;;;;;5055383;28;20390;-33
2021/11/29 08:23:03;;;;;;;0.95;0.93;;;17.20;63.50;;;;;;5041359;28;20049;-28
2021/11/29 08:25:29;;;;;;;0.70;0.70;;;17.20;63.30;;;;;;5035397;28;20532;-25
2021/11/29 08:27:54;;;;;;;0.88;0.82;;;17.20;63.20;;;;;;5036060;28;20037;-24
2021/11/29 08:30:21;;;;;;;0.70;0.70;;;17.20;63.20;;;;;;5045068;28;20037;-28
2021/11/29 08:32:47;;;;;;;1.23;1.00;;;17.20;63.10;;;;;;5050181;28;20144;-28
2021/11/29 08:35:14;;;;;;;0.70;0.70;;;17.20;62.90;;;;;;5036156;28;20049;-33
2021/11/29 08:37:43;;;;;;;0.70;0.70;;;17.20;62.80;;;;;;5035099;28;20052;-33
2021/11/29 08:40:09;;;;;;;0.82;0.82;;;17.20;62.80;;;;;;5045687;28;20053;-35
2021/11/29 08:42:35;;;;;;;1.00;0.90;;;17.20;62.70;;;;;;5046626;28;20128;-33
2021/11/29 08:45:00;;;;;;;0.80;0.80;;;17.20;62.70;;;;;;5061371;28;20083;-30
2021/11/29 08:47:27;;;;;;;1.27;0.85;;;17.20;62.70;;;;;;5057362;28;20059;-30
2021/11/29 08:49:53;;;;;;;0.73;0.73;;;17.20;62.50;;;;;;5055780;28;20084;-32
2021/11/29 08:52:19;;;;;;;1.13;1.00;;;17.20;62.50;;;;;;5052728;28;20041;-31
2021/11/29 08:54:45;;;;;;;0.80;0.80;;;17.20;62.50;;;;;;5034527;28;20048;-33
2021/11/29 08:57:10;;;;;;;0.80;0.80;;;17.20;62.30;;;;;;5035319;28;20457;-32
2021/11/29 08:59:36;;;;;;;0.70;0.70;;;17.20;62.30;;;;;;5043201;28;20049;-32
2021/11/29 09:02:03;;;;;;;0.80;0.77;;;17.20;62.30;;;;;;5035735;28;20045;-34
2021/11/29 09:04:29;;;;;;;0.93;0.82;;;17.20;62.10;;;;;;5034704;28;20099;-26
2021/11/29 09:06:55;;;;;;;0.70;0.70;;;17.20;62.20;;;;;;5038403;28;20050;-30
2021/11/29 09:09:21;;;;;;;0.98;0.98;;;17.20;62.10;;;;;;5035449;28;20049;-30
2021/11/29 09:11:47;;;;;;;0.65;0.65;;;17.20;62.80;;;;;;5034848;28;20052;-32
2021/11/29 09:14:12;;;;;;;1.80;1.05;;;17.20;62.00;;;;;;5026850;28;20131;-28
2021/11/29 09:16:38;;;;;;;1.17;0.82;;;17.20;62.00;;;;;;5016439;28;20463;-26
2021/11/29 09:19:04;;;;;;;0.88;0.80;;;17.20;62.10;;;;;;5034878;28;20077;-27
2021/11/29 09:21:29;;;;;;;0.80;0.80;;;17.30;62.10;;;;;;5034669;28;20091;-27
2021/11/29 09:23:55;;;;;;;0.80;0.80;;;17.20;62.00;;;;;;5035279;28;20041;-30
2021/11/29 09:26:21;;;;;;;2.08;0.80;;;17.20;62.00;;;;;;5035110;28;20442;-31
2021/11/29 09:28:46;;;;;;;0.70;0.70;;;17.20;62.10;;;;;;5028085;28;20103;-31
2021/11/29 09:31:12;;;;;;;1.13;0.80;;;17.20;62.10;;;;;;5035195;28;20041;-30
2021/11/29 09:33:38;;;;;;;0.50;0.50;;;17.20;62.30;;;;;;5034218;28;20042;-23
2021/11/29 09:36:04;;;;;;;0.50;0.50;;;17.20;62.40;;;;;;5035308;28;20037;-34
2021/11/29 09:38:29;;;;;;;0.80;0.80;;;17.20;62.50;;;;;;5034365;28;20041;-26
2021/11/29 09:40:55;;;;;;;0.57;0.57;;;17.10;63.30;;;;;;5048118;28;20382;-27
2021/11/29 09:43:21;;;;;;;0.80;0.77;;;17.10;62.60;;;;;;5055297;28;20514;-28
2021/11/29 09:45:47;;;;;;;0.90;0.90;;;17.10;62.60;;;;;;5054445;28;20068;-27
2021/11/29 09:48:13;;;;;;;0.63;0.60;;;17.10;62.60;;;;;;5054485;28;20087;-31
2021/11/29 09:50:40;;;;;;;1.02;0.70;;;17.10;62.60;;;;;;5054212;28;20493;-25
2021/11/29 09:53:06;;;;;;;0.52;0.52;;;17.10;62.60;;;;;;5045193;28;20104;-25
2021/11/29 09:55:32;;;;;;;0.70;0.70;;;17.00;62.60;;;;;;5043279;28;20042;-30
2021/11/29 09:57:58;;;;;;;1.48;0.95;;;17.10;62.90;;;;;;5034992;28;20049;-26
2021/11/29 10:00:32;;;;;;;0.60;0.60;;;17.10;62.80;;;;;;5028395;28;20502;-30
2021/11/29 10:02:58;;;;;;;0.65;0.65;;;17.00;62.70;;;;;;5019742;28;20335;-27
2021/11/29 10:05:24;;;;;;;0.57;0.55;;;17.00;62.70;;;;;;5034291;28;20080;-26
2021/11/29 10:07:51;;;;;;;1.40;0.80;;;17.00;62.80;;;;;;5034517;28;20072;-25
2021/11/29 10:10:53;;;;;;;0.70;0.70;;;17.00;62.70;;;;;;5034731;28;20041;-30
2021/11/29 10:13:19;;;;;;;1.10;0.80;;;17.00;62.90;;;;;;5054070;28;20516;-25
2021/11/29 10:15:45;;;;;;;0.80;0.80;;;17.00;62.90;;;;;;5055961;28;20589;-24
2021/11/29 10:18:17;;;;;;;0.80;0.80;;;17.00;62.70;;;;;;5044790;28;20401;-25
2021/11/29 10:21:07;;;;;;;1.20;0.65;;;17.00;63.00;;;;;;5042190;28;20045;-24
2021/11/29 10:23:37;;;;;;;1.33;0.80;;;17.00;62.80;;;;;;5042439;28;20128;-25
2021/11/29 10:26:11;;;;;;;0.80;0.80;;;17.00;62.90;;;;;;5042984;28;20046;-27
2021/11/29 10:28:39;;;;;;;0.50;0.50;;;17.00;62.90;;;;;;5042078;28;20075;-31
2021/11/29 10:31:09;;;;;;;0.70;0.70;;;17.00;62.90;;;;;;5039085;28;20064;-31
2021/11/29 10:33:53;;;;;;;0.63;0.60;;;17.00;62.90;;;;;;5029903;28;20458;-30
2021/11/29 10:36:19;;;;;;;0.60;0.60;;;17.00;63.10;;;;;;5018827;28;20060;-30
2021/11/29 10:38:49;;;;;;;0.50;0.50;;;17.00;62.90;;;;;;5013790;28;20121;-30
2021/11/29 10:41:15;;;;;;;0.70;0.70;;;17.00;62.90;;;;;;5014880;28;20045;-30
2021/11/29 10:43:43;;;;;;;0.63;0.63;;;17.00;63.00;;;;;;5033937;28;20052;-27
2021/11/29 10:46:35;;;;;;;0.60;0.55;;;17.00;62.90;;;;;;5056881;28;20044;-29
2021/11/29 10:49:07;;;;;;;0.68;0.68;;;17.00;62.60;;;;;;5056885;28;20049;-27
2021/11/29 10:51:33;;;;;;;0.60;0.60;;;17.00;62.80;;;;;;5056834;28;20044;-27
2021/11/29 10:54:02;;;;;;;0.70;0.70;;;17.00;62.80;;;;;;5041364;28;20603;-25
2021/11/29 10:56:30;;;;;;;0.80;0.80;;;16.90;62.80;;;;;;5037285;28;20041;-33
2021/11/29 10:58:57;;;;;;;1.70;0.60;;;17.00;62.70;;;;;;5045608;28;20128;-29
2021/11/29 11:01:37;;;;;;;0.50;0.50;;;17.10;62.30;;;;;;5038026;28;20128;-29
2021/11/29 11:04:04;;;;;;;0.60;0.60;;;17.10;62.00;;;;;;5037080;28;20048;-28
2021/11/29 11:06:34;;;;;;;0.60;0.60;;;17.10;62.00;;;;;;5045279;28;20043;-31
2021/11/29 11:08:59;;;;;;;0.65;0.50;;;17.20;61.90;;;;;;5049145;28;20043;-24
2021/11/29 11:11:34;;;;;;;0.60;0.60;;;17.10;62.00;;;;;;5057471;28;20045;-28
2021/11/29 11:14:05;;;;;;;0.50;0.50;;;17.10;61.90;;;;;;5040075;28;20037;-23
2021/11/29 11:16:58;;;;;;;0.50;0.50;;;17.20;61.80;;;;;;5044050;28;20044;-30
2021/11/29 11:19:42;;;;;;;0.50;0.50;;;17.10;61.70;;;;;;5035232;28;20037;-31
2021/11/29 11:22:28;;;;;;;0.70;0.70;;;17.10;61.80;;;;;;5050566;28;20079;-27
2021/11/29 11:25:03;;;;;;;0.65;0.65;;;17.10;61.80;;;;;;5056581;28;20298;-29
2021/11/29 11:27:30;;;;;;;0.50;0.50;;;17.20;61.90;;;;;;5051303;28;20029;-32
2021/11/29 11:30:10;;;;;;;0.55;0.52;;;17.20;61.80;;;;;;5036321;28;20052;-28
2021/11/29 11:32:37;;;;;;;0.60;0.60;;;17.10;61.70;;;;;;5036144;28;20041;-25
2021/11/29 11:35:11;;;;;;;0.52;0.52;;;17.10;61.80;;;;;;5037041;28;20068;-23
2021/11/29 11:37:42;;;;;;;0.68;0.68;;;17.20;61.70;;;;;;5036618;28;20045;-30
2021/11/29 11:40:10;;;;;;;0.70;0.70;;;17.20;61.70;;;;;;5036576;28;20095;-25
2021/11/29 11:42:35;;;;;;;0.50;0.50;;;17.20;61.70;;;;;;5036645;28;20037;-27
2021/11/29 11:45:01;;;;;;;0.98;0.57;;;17.10;61.60;;;;;;5037241;28;20056;-30
2021/11/29 11:47:30;;;;;;;0.50;0.50;;;17.20;61.60;;;;;;5043878;28;20061;-27
2021/11/29 11:49:55;;;;;;;1.20;0.40;;;17.20;61.60;;;;;;5051465;28;20056;-27
2021/11/29 11:52:21;;;;;;;0.43;0.43;;;17.20;61.40;;;;;;5053558;28;20033;-24
2021/11/29 11:54:47;;;;;;;0.50;0.50;;;17.20;61.50;;;;;;5036416;28;20037;-28
2021/11/29 11:57:15;;;;;;;0.50;0.50;;;17.20;61.50;;;;;;5036869;28;20514;-26
2021/11/29 12:00:04;;;;;;;0.50;0.50;;;17.20;61.50;;;;;;5034123;28;20056;-30
2021/11/29 12:03:04;;;;;;;0.50;0.50;;;17.30;61.50;;;;;;5027526;28;20531;-32
2021/11/29 12:05:32;;;;;;;0.50;0.50;;;17.30;61.50;;;;;;5040090;28;20068;-23
2021/11/29 12:07:57;;;;;;;0.60;0.60;;;17.30;61.40;;;;;;5049894;28;20073;-25
2021/11/29 12:10:32;;;;;;;0.43;0.43;;;17.30;61.40;;;;;;5053133;28;20045;-30
2021/11/29 12:12:58;;;;;;;0.40;0.40;;;17.30;61.30;;;;;;5051962;28;20063;-31
2021/11/29 12:15:46;;;;;;;0.50;0.50;;;17.30;61.40;;;;;;5054149;28;20417;-27
2021/11/29 12:18:41;;;;;;;0.55;0.50;;;17.30;61.40;;;;;;5052267;28;20422;-31
2021/11/29 12:21:10;;;;;;;0.68;0.68;;;17.30;61.30;;;;;;5030714;28;20100;-32
2021/11/29 12:23:50;;;;;;;0.43;0.43;;;17.30;61.30;;;;;;5038578;28;20108;-32
2021/11/29 12:26:15;;;;;;;0.45;0.40;;;17.30;61.30;;;;;;5036388;28;20051;-27
2021/11/29 12:28:42;;;;;;;0.50;0.50;;;17.30;61.20;;;;;;5038622;28;20124;-27
2021/11/29 12:31:34;;;;;;;0.30;0.30;;;17.30;61.20;;;;;;5041055;28;20041;-34
2021/11/29 12:34:04;;;;;;;0.85;0.57;;;17.30;61.20;;;;;;5030472;28;20128;-34
2021/11/29 12:36:59;;;;;;;0.90;0.43;;;17.30;61.20;;;;;;5044387;28;20040;-32
2021/11/29 12:39:43;;;;;;;;;;;17.30;61.20;;;;;;5034737;28;20036;-32
2021/11/29 12:42:27;;;;;;;0.50;0.50;;;17.30;61.20;;;;;;5048195;28;20004;-35
2021/11/29 12:44:55;;;;;;;0.40;0.40;;;17.30;61.20;;;;;;5032078;28;20272;-34
2021/11/29 12:47:26;;;;;;;0.40;0.40;;;17.30;61.20;;;;;;5032509;28;20534;-28
2021/11/29 12:49:53;;;;;;;0.50;0.50;;;17.30;61.20;;;;;;5035114;28;20089;-34